Alexander, Arkansas
Current Conditions -  °F | °C
As of 10:53 PM on Wednesday 26 Nov 2014 (Local Time) from KLIT Reporting Station
Clear Clear  
Wind Chill: 43°   Ceiling: Unl
Heat Index: 46°   Visibility: 10mi
Dew Point: 26°   Wind: 6mph
Humidity: 46%   Direction: 300°WNW
Pressure: 30.27"   Gusts: NA
Location:  34.63°N, 92.44°W
Report Text: KLIT 270453Z 30005KT 10SM CLR 08/M03 A3027 RMK AO2 SLP255 T00781033
Loading
Personal Weather Stations






























Interactive Weather Map New forecast layout! Learn more

10-Day Weather Forecast

Advertisements
Track Severe Weather on mobile